sensor_id;sensor_type;location;lat;lon;timestamp;P1;durP1;ratioP1;P2;durP2;ratioP2
6119;SDS011;3090;52.496;13.298;2023-07-20T00:00:27;0.30;;;0.30;;
6119;SDS011;3090;52.496;13.298;2023-07-20T00:02:57;0.30;;;0.30;;
6119;SDS011;3090;52.496;13.298;2023-07-20T00:05:35;0.20;;;0.20;;
6119;SDS011;3090;52.496;13.298;2023-07-20T00:08:01;0.30;;;0.30;;
6119;SDS011;3090;52.496;13.298;2023-07-20T00:10:27;0.13;;;0.13;;
6119;SDS011;3090;52.496;13.298;2023-07-20T00:12:55;0.68;;;0.32;;
6119;SDS011;3090;52.496;13.298;2023-07-20T00:15:21;0.30;;;0.30;;
6119;SDS011;3090;52.496;13.298;2023-07-20T00:17:47;0.43;;;0.43;;
6119;SDS011;3090;52.496;13.298;2023-07-20T00:20:14;0.30;;;0.30;;
6119;SDS011;3090;52.496;13.298;2023-07-20T00:22:40;0.22;;;0.22;;
6119;SDS011;3090;52.496;13.298;2023-07-20T00:25:05;0.47;;;0.47;;
6119;SDS011;3090;52.496;13.298;2023-07-20T00:27:31;0.20;;;0.20;;
6119;SDS011;3090;52.496;13.298;2023-07-20T00:29:59;0.47;;;0.47;;
6119;SDS011;3090;52.496;13.298;2023-07-20T00:32:25;0.47;;;0.47;;
6119;SDS011;3090;52.496;13.298;2023-07-20T00:34:51;0.20;;;0.20;;
6119;SDS011;3090;52.496;13.298;2023-07-20T00:37:17;0.45;;;0.45;;
6119;SDS011;3090;52.496;13.298;2023-07-20T00:39:44;0.20;;;0.20;;
6119;SDS011;3090;52.496;13.298;2023-07-20T00:42:10;0.50;;;0.50;;
6119;SDS011;3090;52.496;13.298;2023-07-20T00:44:36;0.35;;;0.35;;
6119;SDS011;3090;52.496;13.298;2023-07-20T00:47:04;0.30;;;0.30;;
6119;SDS011;3090;52.496;13.298;2023-07-20T00:49:30;0.57;;;0.57;;
6119;SDS011;3090;52.496;13.298;2023-07-20T00:51:58;1.48;;;0.63;;
6119;SDS011;3090;52.496;13.298;2023-07-20T00:54:25;0.38;;;0.38;;
6119;SDS011;3090;52.496;13.298;2023-07-20T00:56:52;0.40;;;0.40;;
6119;SDS011;3090;52.496;13.298;2023-07-20T00:59:19;0.70;;;0.70;;
6119;SDS011;3090;52.496;13.298;2023-07-20T01:01:45;0.50;;;0.50;;
6119;SDS011;3090;52.496;13.298;2023-07-20T01:04:13;0.40;;;0.40;;
6119;SDS011;3090;52.496;13.298;2023-07-20T01:06:41;0.73;;;0.73;;
6119;SDS011;3090;52.496;13.298;2023-07-20T01:09:12;0.70;;;0.70;;
6119;SDS011;3090;52.496;13.298;2023-07-20T01:11:42;0.65;;;0.65;;
6119;SDS011;3090;52.496;13.298;2023-07-20T01:14:09;8.20;;;0.60;;
6119;SDS011;3090;52.496;13.298;2023-07-20T01:16:36;0.40;;;0.40;;
6119;SDS011;3090;52.496;13.298;2023-07-20T01:19:02;5.88;;;0.80;;
6119;SDS011;3090;52.496;13.298;2023-07-20T01:21:34;0.30;;;0.30;;
6119;SDS011;3090;52.496;13.298;2023-07-20T01:24:18;0.47;;;0.47;;
6119;SDS011;3090;52.496;13.298;2023-07-20T01:26:58;3.58;;;0.50;;
6119;SDS011;3090;52.496;13.298;2023-07-20T01:29:32;0.30;;;0.30;;
6119;SDS011;3090;52.496;13.298;2023-07-20T01:32:05;0.50;;;0.50;;
6119;SDS011;3090;52.496;13.298;2023-07-20T01:34:32;0.40;;;0.40;;
6119;SDS011;3090;52.496;13.298;2023-07-20T01:37:00;0.60;;;0.60;;
6119;SDS011;3090;52.496;13.298;2023-07-20T01:39:27;4.32;;;0.70;;
6119;SDS011;3090;52.496;13.298;2023-07-20T01:41:53;1.55;;;0.50;;
6119;SDS011;3090;52.496;13.298;2023-07-20T01:44:21;0.65;;;0.60;;
6119;SDS011;3090;52.496;13.298;2023-07-20T01:46:47;0.43;;;0.40;;
6119;SDS011;3090;52.496;13.298;2023-07-20T01:49:14;0.50;;;0.50;;
6119;SDS011;3090;52.496;13.298;2023-07-20T01:51:41;0.30;;;0.30;;
6119;SDS011;3090;52.496;13.298;2023-07-20T01:54:07;0.45;;;0.45;;
6119;SDS011;3090;52.496;13.298;2023-07-20T01:56:33;0.82;;;0.82;;
6119;SDS011;3090;52.496;13.298;2023-07-20T01:58:59;0.45;;;0.45;;
6119;SDS011;3090;52.496;13.298;2023-07-20T02:01:25;3.50;;;0.55;;
6119;SDS011;3090;52.496;13.298;2023-07-20T02:03:53;2.80;;;0.40;;
6119;SDS011;3090;52.496;13.298;2023-07-20T02:06:21;0.40;;;0.40;;
6119;SDS011;3090;52.496;13.298;2023-07-20T02:08:47;0.32;;;0.32;;
6119;SDS011;3090;52.496;13.298;2023-07-20T02:11:13;0.50;;;0.50;;
6119;SDS011;3090;52.496;13.298;2023-07-20T02:13:39;0.55;;;0.55;;
6119;SDS011;3090;52.496;13.298;2023-07-20T02:16:05;0.30;;;0.30;;
6119;SDS011;3090;52.496;13.298;2023-07-20T02:18:32;0.55;;;0.55;;
6119;SDS011;3090;52.496;13.298;2023-07-20T02:20:58;0.50;;;0.50;;
6119;SDS011;3090;52.496;13.298;2023-07-20T02:23:26;0.68;;;0.68;;
6119;SDS011;3090;52.496;13.298;2023-07-20T02:25:52;0.40;;;0.40;;
6119;SDS011;3090;52.496;13.298;2023-07-20T02:28:18;0.32;;;0.32;;
6119;SDS011;3090;52.496;13.298;2023-07-20T02:30:44;0.50;;;0.50;;
6119;SDS011;3090;52.496;13.298;2023-07-20T02:33:11;0.20;;;0.20;;
6119;SDS011;3090;52.496;13.298;2023-07-20T02:35:37;1.13;;;0.50;;
6119;SDS011;3090;52.496;13.298;2023-07-20T02:38:03;0.40;;;0.40;;
6119;SDS011;3090;52.496;13.298;2023-07-20T02:40:38;0.30;;;0.30;;
6119;SDS011;3090;52.496;13.298;2023-07-20T02:43:04;0.30;;;0.30;;
6119;SDS011;3090;52.496;13.298;2023-07-20T02:45:31;0.60;;;0.60;;
6119;SDS011;3090;52.496;13.298;2023-07-20T02:47:57;0.30;;;0.30;;
6119;SDS011;3090;52.496;13.298;2023-07-20T02:50:23;0.40;;;0.40;;
6119;SDS011;3090;52.496;13.298;2023-07-20T02:52:49;0.40;;;0.40;;
6119;SDS011;3090;52.496;13.298;2023-07-20T02:55:16;0.65;;;0.65;;
6119;SDS011;3090;52.496;13.298;2023-07-20T02:57:43;0.52;;;0.52;;
6119;SDS011;3090;52.496;13.298;2023-07-20T03:00:10;0.60;;;0.60;;
6119;SDS011;3090;52.496;13.298;2023-07-20T03:02:36;0.35;;;0.35;;
6119;SDS011;3090;52.496;13.298;2023-07-20T03:05:03;0.60;;;0.60;;
6119;SDS011;3090;52.496;13.298;2023-07-20T03:07:32;0.20;;;0.20;;
6119;SDS011;3090;52.496;13.298;2023-07-20T03:09:58;0.30;;;0.30;;
6119;SDS011;3090;52.496;13.298;2023-07-20T03:12:24;0.73;;;0.73;;
6119;SDS011;3090;52.496;13.298;2023-07-20T03:14:52;12.18;;;0.90;;
6119;SDS011;3090;52.496;13.298;2023-07-20T03:17:19;0.50;;;0.50;;
6119;SDS011;3090;52.496;13.298;2023-07-20T03:19:45;0.57;;;0.57;;
6119;SDS011;3090;52.496;13.298;2023-07-20T03:22:11;0.57;;;0.57;;
6119;SDS011;3090;52.496;13.298;2023-07-20T03:24:38;6.32;;;0.85;;
6119;SDS011;3090;52.496;13.298;2023-07-20T03:27:04;0.75;;;0.75;;
6119;SDS011;3090;52.496;13.298;2023-07-20T03:29:31;0.32;;;0.32;;
6119;SDS011;3090;52.496;13.298;2023-07-20T03:32:08;0.45;;;0.45;;
6119;SDS011;3090;52.496;13.298;2023-07-20T03:34:34;1.90;;;1.80;;
6119;SDS011;3090;52.496;13.298;2023-07-20T03:37:01;0.57;;;0.57;;
6119;SDS011;3090;52.496;13.298;2023-07-20T03:39:29;0.60;;;0.60;;
6119;SDS011;3090;52.496;13.298;2023-07-20T03:41:55;0.90;;;0.90;;
6119;SDS011;3090;52.496;13.298;2023-07-20T03:44:23;1.40;;;1.40;;
6119;SDS011;3090;52.496;13.298;2023-07-20T03:46:49;0.73;;;0.73;;
6119;SDS011;3090;52.496;13.298;2023-07-20T03:49:17;1.20;;;1.20;;
6119;SDS011;3090;52.496;13.298;2023-07-20T03:51:43;0.57;;;0.57;;
6119;SDS011;3090;52.496;13.298;2023-07-20T03:54:09;0.98;;;0.98;;
6119;SDS011;3090;52.496;13.298;2023-07-20T03:56:35;0.90;;;0.90;;
6119;SDS011;3090;52.496;13.298;2023-07-20T03:59:01;1.30;;;0.88;;
6119;SDS011;3090;52.496;13.298;2023-07-20T04:01:28;0.85;;;0.85;;
6119;SDS011;3090;52.496;13.298;2023-07-20T04:03:54;0.70;;;0.70;;
6119;SDS011;3090;52.496;13.298;2023-07-20T04:06:22;1.63;;;1.00;;
6119;SDS011;3090;52.496;13.298;2023-07-20T04:08:48;0.93;;;0.93;;
6119;SDS011;3090;52.496;13.298;2023-07-20T04:11:14;0.88;;;0.88;;
6119;SDS011;3090;52.496;13.298;2023-07-20T04:13:40;0.70;;;0.70;;
6119;SDS011;3090;52.496;13.298;2023-07-20T04:16:06;3.03;;;1.23;;
6119;SDS011;3090;52.496;13.298;2023-07-20T04:18:33;0.77;;;0.77;;
6119;SDS011;3090;52.496;13.298;2023-07-20T04:20:59;1.23;;;1.23;;
6119;SDS011;3090;52.496;13.298;2023-07-20T04:23:26;1.58;;;1.58;;
6119;SDS011;3090;52.496;13.298;2023-07-20T04:25:52;1.05;;;0.95;;
6119;SDS011;3090;52.496;13.298;2023-07-20T04:28:19;1.05;;;1.05;;
6119;SDS011;3090;52.496;13.298;2023-07-20T04:30:49;1.05;;;0.70;;
6119;SDS011;3090;52.496;13.298;2023-07-20T04:33:15;0.77;;;0.77;;
6119;SDS011;3090;52.496;13.298;2023-07-20T04:35:45;0.82;;;0.82;;
6119;SDS011;3090;52.496;13.298;2023-07-20T04:38:12;0.40;;;0.40;;
6119;SDS011;3090;52.496;13.298;2023-07-20T04:40:39;0.70;;;0.70;;
6119;SDS011;3090;52.496;13.298;2023-07-20T04:43:06;0.65;;;0.65;;
6119;SDS011;3090;52.496;13.298;2023-07-20T04:45:32;0.93;;;0.93;;
6119;SDS011;3090;52.496;13.298;2023-07-20T04:47:58;1.48;;;1.45;;
6119;SDS011;3090;52.496;13.298;2023-07-20T04:50:24;0.50;;;0.50;;
6119;SDS011;3090;52.496;13.298;2023-07-20T04:52:51;0.43;;;0.40;;
6119;SDS011;3090;52.496;13.298;2023-07-20T04:55:18;0.32;;;0.32;;
6119;SDS011;3090;52.496;13.298;2023-07-20T04:57:45;1.85;;;1.65;;
6119;SDS011;3090;52.496;13.298;2023-07-20T05:00:12;1.00;;;1.00;;
6119;SDS011;3090;52.496;13.298;2023-07-20T05:02:39;0.75;;;0.65;;
6119;SDS011;3090;52.496;13.298;2023-07-20T05:05:06;0.43;;;0.43;;
6119;SDS011;3090;52.496;13.298;2023-07-20T05:07:38;0.52;;;0.52;;
6119;SDS011;3090;52.496;13.298;2023-07-20T05:10:05;0.47;;;0.47;;
6119;SDS011;3090;52.496;13.298;2023-07-20T05:12:31;0.77;;;0.77;;
6119;SDS011;3090;52.496;13.298;2023-07-20T05:14:59;0.75;;;0.75;;
6119;SDS011;3090;52.496;13.298;2023-07-20T05:17:25;6.22;;;1.30;;
6119;SDS011;3090;52.496;13.298;2023-07-20T05:19:54;0.55;;;0.55;;
6119;SDS011;3090;52.496;13.298;2023-07-20T05:22:20;0.57;;;0.57;;
6119;SDS011;3090;52.496;13.298;2023-07-20T05:24:46;0.80;;;0.80;;
6119;SDS011;3090;52.496;13.298;2023-07-20T05:27:12;0.68;;;0.68;;
6119;SDS011;3090;52.496;13.298;2023-07-20T05:29:42;0.73;;;0.73;;
6119;SDS011;3090;52.496;13.298;2023-07-20T05:32:10;0.68;;;0.68;;
6119;SDS011;3090;52.496;13.298;2023-07-20T05:34:36;0.70;;;0.70;;
6119;SDS011;3090;52.496;13.298;2023-07-20T05:37:06;0.73;;;0.73;;
6119;SDS011;3090;52.496;13.298;2023-07-20T05:39:32;0.80;;;0.80;;
6119;SDS011;3090;52.496;13.298;2023-07-20T05:41:58;0.40;;;0.40;;
6119;SDS011;3090;52.496;13.298;2023-07-20T05:44:25;1.08;;;1.08;;
6119;SDS011;3090;52.496;13.298;2023-07-20T05:46:51;3.05;;;1.13;;
6119;SDS011;3090;52.496;13.298;2023-07-20T05:49:18;0.70;;;0.70;;
6119;SDS011;3090;52.496;13.298;2023-07-20T05:51:44;0.90;;;0.90;;
6119;SDS011;3090;52.496;13.298;2023-07-20T05:54:11;0.65;;;0.65;;
6119;SDS011;3090;52.496;13.298;2023-07-20T05:56:37;0.93;;;0.93;;
6119;SDS011;3090;52.496;13.298;2023-07-20T05:59:04;0.95;;;0.95;;
6119;SDS011;3090;52.496;13.298;2023-07-20T06:01:30;0.85;;;0.85;;
6119;SDS011;3090;52.496;13.298;2023-07-20T06:03:56;1.08;;;1.08;;
6119;SDS011;3090;52.496;13.298;2023-07-20T06:06:24;0.50;;;0.50;;
6119;SDS011;3090;52.496;13.298;2023-07-20T06:08:50;0.40;;;0.40;;
6119;SDS011;3090;52.496;13.298;2023-07-20T06:11:17;0.50;;;0.50;;
6119;SDS011;3090;52.496;13.298;2023-07-20T06:13:43;0.50;;;0.50;;
6119;SDS011;3090;52.496;13.298;2023-07-20T06:16:09;0.50;;;0.50;;
6119;SDS011;3090;52.496;13.298;2023-07-20T06:18:36;0.50;;;0.50;;
6119;SDS011;3090;52.496;13.298;2023-07-20T06:21:02;0.65;;;0.65;;
6119;SDS011;3090;52.496;13.298;2023-07-20T06:23:30;0.60;;;0.60;;
6119;SDS011;3090;52.496;13.298;2023-07-20T06:25:56;0.98;;;0.98;;
6119;SDS011;3090;52.496;13.298;2023-07-20T06:28:22;0.55;;;0.50;;
6119;SDS011;3090;52.496;13.298;2023-07-20T06:30:51;0.55;;;0.55;;
6119;SDS011;3090;52.496;13.298;2023-07-20T06:33:18;0.30;;;0.30;;
6119;SDS011;3090;52.496;13.298;2023-07-20T06:35:47;0.47;;;0.47;;
6119;SDS011;3090;52.496;13.298;2023-07-20T06:38:16;0.30;;;0.30;;
6119;SDS011;3090;52.496;13.298;2023-07-20T06:40:47;0.50;;;0.50;;
6119;SDS011;3090;52.496;13.298;2023-07-20T06:43:13;0.30;;;0.30;;
6119;SDS011;3090;52.496;13.298;2023-07-20T06:45:50;0.25;;;0.25;;
6119;SDS011;3090;52.496;13.298;2023-07-20T06:48:17;0.43;;;0.43;;
6119;SDS011;3090;52.496;13.298;2023-07-20T06:50:43;0.40;;;0.40;;
6119;SDS011;3090;52.496;13.298;2023-07-20T06:53:10;0.25;;;0.25;;
6119;SDS011;3090;52.496;13.298;2023-07-20T06:55:37;0.30;;;0.30;;
6119;SDS011;3090;52.496;13.298;2023-07-20T06:58:06;0.30;;;0.30;;
6119;SDS011;3090;52.496;13.298;2023-07-20T07:00:32;0.30;;;0.30;;
6119;SDS011;3090;52.496;13.298;2023-07-20T07:02:58;0.20;;;0.20;;
6119;SDS011;3090;52.496;13.298;2023-07-20T07:05:25;0.25;;;0.25;;
6119;SDS011;3090;52.496;13.298;2023-07-20T07:07:51;0.30;;;0.30;;
6119;SDS011;3090;52.496;13.298;2023-07-20T07:10:18;0.50;;;0.50;;
6119;SDS011;3090;52.496;13.298;2023-07-20T07:12:44;0.35;;;0.35;;
6119;SDS011;3090;52.496;13.298;2023-07-20T07:15:13;0.43;;;0.43;;
6119;SDS011;3090;52.496;13.298;2023-07-20T07:17:46;0.17;;;0.17;;
6119;SDS011;3090;52.496;13.298;2023-07-20T07:20:17;0.22;;;0.22;;
6119;SDS011;3090;52.496;13.298;2023-07-20T07:22:44;0.20;;;0.20;;
6119;SDS011;3090;52.496;13.298;2023-07-20T07:25:11;0.43;;;0.43;;
6119;SDS011;3090;52.496;13.298;2023-07-20T07:27:38;0.25;;;0.25;;
6119;SDS011;3090;52.496;13.298;2023-07-20T07:30:05;0.30;;;0.30;;
6119;SDS011;3090;52.496;13.298;2023-07-20T07:32:38;0.30;;;0.30;;
6119;SDS011;3090;52.496;13.298;2023-07-20T07:35:04;0.30;;;0.30;;
6119;SDS011;3090;52.496;13.298;2023-07-20T07:37:31;0.32;;;0.32;;
6119;SDS011;3090;52.496;13.298;2023-07-20T07:39:57;0.20;;;0.20;;
6119;SDS011;3090;52.496;13.298;2023-07-20T07:42:23;0.17;;;0.17;;
6119;SDS011;3090;52.496;13.298;2023-07-20T07:44:50;0.30;;;0.30;;
6119;SDS011;3090;52.496;13.298;2023-07-20T07:47:26;0.20;;;0.20;;
6119;SDS011;3090;52.496;13.298;2023-07-20T07:49:53;0.20;;;0.20;;
6119;SDS011;3090;52.496;13.298;2023-07-20T07:52:20;0.20;;;0.20;;
6119;SDS011;3090;52.496;13.298;2023-07-20T07:54:46;0.17;;;0.17;;
6119;SDS011;3090;52.496;13.298;2023-07-20T07:57:12;0.20;;;0.20;;
6119;SDS011;3090;52.496;13.298;2023-07-20T07:59:39;0.22;;;0.22;;
6119;SDS011;3090;52.496;13.298;2023-07-20T08:02:05;0.40;;;0.35;;
6119;SDS011;3090;52.496;13.298;2023-07-20T08:04:33;0.20;;;0.20;;
6119;SDS011;3090;52.496;13.298;2023-07-20T08:07:03;0.20;;;0.20;;
6119;SDS011;3090;52.496;13.298;2023-07-20T08:09:29;0.20;;;0.20;;
6119;SDS011;3090;52.496;13.298;2023-07-20T08:11:56;0.35;;;0.35;;
6119;SDS011;3090;52.496;13.298;2023-07-20T08:14:22;0.20;;;0.20;;
6119;SDS011;3090;52.496;13.298;2023-07-20T08:16:48;0.10;;;0.10;;
6119;SDS011;3090;52.496;13.298;2023-07-20T08:19:14;0.10;;;0.10;;
6119;SDS011;3090;52.496;13.298;2023-07-20T08:21:41;0.15;;;0.10;;
6119;SDS011;3090;52.496;13.298;2023-07-20T08:24:08;2.38;;;0.20;;
6119;SDS011;3090;52.496;13.298;2023-07-20T08:26:34;0.20;;;0.20;;
6119;SDS011;3090;52.496;13.298;2023-07-20T08:29:01;0.30;;;0.30;;
6119;SDS011;3090;52.496;13.298;2023-07-20T08:31:42;0.20;;;0.20;;
6119;SDS011;3090;52.496;13.298;2023-07-20T08:34:08;0.10;;;0.10;;
6119;SDS011;3090;52.496;13.298;2023-07-20T08:36:37;0.10;;;0.10;;
6119;SDS011;3090;52.496;13.298;2023-07-20T08:39:03;0.10;;;0.10;;
6119;SDS011;3090;52.496;13.298;2023-07-20T08:41:31;0.10;;;0.10;;
6119;SDS011;3090;52.496;13.298;2023-07-20T08:43:57;0.10;;;0.10;;
6119;SDS011;3090;52.496;13.298;2023-07-20T08:46:24;0.20;;;0.20;;
6119;SDS011;3090;52.496;13.298;2023-07-20T08:48:52;0.65;;;0.65;;
6119;SDS011;3090;52.496;13.298;2023-07-20T08:51:19;0.10;;;0.10;;
6119;SDS011;3090;52.496;13.298;2023-07-20T08:53:45;0.20;;;0.20;;
6119;SDS011;3090;52.496;13.298;2023-07-20T08:56:13;0.10;;;0.10;;
6119;SDS011;3090;52.496;13.298;2023-07-20T08:58:42;0.17;;;0.17;;
6119;SDS011;3090;52.496;13.298;2023-07-20T09:01:09;0.10;;;0.10;;
6119;SDS011;3090;52.496;13.298;2023-07-20T09:03:36;0.10;;;0.10;;
6119;SDS011;3090;52.496;13.298;2023-07-20T09:06:04;0.10;;;0.10;;
6119;SDS011;3090;52.496;13.298;2023-07-20T09:08:35;0.22;;;0.22;;
6119;SDS011;3090;52.496;13.298;2023-07-20T09:11:03;0.30;;;0.30;;
6119;SDS011;3090;52.496;13.298;2023-07-20T09:13:29;0.10;;;0.10;;
6119;SDS011;3090;52.496;13.298;2023-07-20T09:15:57;0.10;;;0.10;;
6119;SDS011;3090;52.496;13.298;2023-07-20T09:18:24;0.30;;;0.30;;
6119;SDS011;3090;52.496;13.298;2023-07-20T09:20:51;0.13;;;0.13;;
6119;SDS011;3090;52.496;13.298;2023-07-20T09:23:17;0.20;;;0.20;;
6119;SDS011;3090;52.496;13.298;2023-07-20T09:25:43;0.10;;;0.10;;
6119;SDS011;3090;52.496;13.298;2023-07-20T09:28:13;0.20;;;0.20;;
6119;SDS011;3090;52.496;13.298;2023-07-20T09:30:40;0.20;;;0.20;;
6119;SDS011;3090;52.496;13.298;2023-07-20T09:33:07;0.20;;;0.20;;
6119;SDS011;3090;52.496;13.298;2023-07-20T09:35:44;0.22;;;0.22;;
6119;SDS011;3090;52.496;13.298;2023-07-20T09:38:10;0.00;;;0.00;;
6119;SDS011;3090;52.496;13.298;2023-07-20T09:40:37;0.13;;;0.13;;
6119;SDS011;3090;52.496;13.298;2023-07-20T09:43:07;0.22;;;0.22;;
6119;SDS011;3090;52.496;13.298;2023-07-20T09:45:34;0.20;;;0.20;;
6119;SDS011;3090;52.496;13.298;2023-07-20T09:48:04;0.10;;;0.10;;
6119;SDS011;3090;52.496;13.298;2023-07-20T09:50:35;0.10;;;0.10;;
6119;SDS011;3090;52.496;13.298;2023-07-20T09:53:05;0.10;;;0.10;;
6119;SDS011;3090;52.496;13.298;2023-07-20T09:55:31;0.10;;;0.10;;
6119;SDS011;3090;52.496;13.298;2023-07-20T09:57:59;0.20;;;0.20;;
6119;SDS011;3090;52.496;13.298;2023-07-20T10:00:26;0.20;;;0.20;;
6119;SDS011;3090;52.496;13.298;2023-07-20T10:02:52;0.10;;;0.10;;
6119;SDS011;3090;52.496;13.298;2023-07-20T10:05:20;0.20;;;0.20;;
6119;SDS011;3090;52.496;13.298;2023-07-20T10:07:48;0.15;;;0.15;;
6119;SDS011;3090;52.496;13.298;2023-07-20T10:10:15;0.17;;;0.17;;
6119;SDS011;3090;52.496;13.298;2023-07-20T10:12:43;0.15;;;0.15;;
6119;SDS011;3090;52.496;13.298;2023-07-20T10:15:11;0.10;;;0.10;;
6119;SDS011;3090;52.496;13.298;2023-07-20T10:17:39;0.17;;;0.17;;
6119;SDS011;3090;52.496;13.298;2023-07-20T10:20:06;0.13;;;0.13;;
6119;SDS011;3090;52.496;13.298;2023-07-20T10:22:34;0.20;;;0.20;;
6119;SDS011;3090;52.496;13.298;2023-07-20T10:25:02;0.20;;;0.20;;
6119;SDS011;3090;52.496;13.298;2023-07-20T10:27:30;0.20;;;0.20;;
6119;SDS011;3090;52.496;13.298;2023-07-20T10:29:57;0.10;;;0.10;;
6119;SDS011;3090;52.496;13.298;2023-07-20T10:32:26;0.17;;;0.17;;
6119;SDS011;3090;52.496;13.298;2023-07-20T10:34:55;0.20;;;0.20;;
6119;SDS011;3090;52.496;13.298;2023-07-20T10:40:27;0.20;;;0.20;;
6119;SDS011;3090;52.496;13.298;2023-07-20T10:42:57;0.22;;;0.22;;
6119;SDS011;3090;52.496;13.298;2023-07-20T10:45:32;0.20;;;0.20;;
6119;SDS011;3090;52.496;13.298;2023-07-20T10:47:59;0.10;;;0.10;;
6119;SDS011;3090;52.496;13.298;2023-07-20T10:50:28;0.20;;;0.20;;
6119;SDS011;3090;52.496;13.298;2023-07-20T10:53:03;0.32;;;0.32;;
6119;SDS011;3090;52.496;13.298;2023-07-20T10:55:32;0.30;;;0.30;;
6119;SDS011;3090;52.496;13.298;2023-07-20T10:58:08;0.20;;;0.20;;
6119;SDS011;3090;52.496;13.298;2023-07-20T11:00:36;0.17;;;0.17;;
6119;SDS011;3090;52.496;13.298;2023-07-20T11:03:03;0.50;;;0.50;;
6119;SDS011;3090;52.496;13.298;2023-07-20T11:05:34;0.20;;;0.20;;
6119;SDS011;3090;52.496;13.298;2023-07-20T11:08:03;0.65;;;0.30;;
6119;SDS011;3090;52.496;13.298;2023-07-20T11:10:30;3.75;;;0.25;;
6119;SDS011;3090;52.496;13.298;2023-07-20T11:16:04;0.55;;;0.30;;
6119;SDS011;3090;52.496;13.298;2023-07-20T11:18:32;0.10;;;0.10;;
6119;SDS011;3090;52.496;13.298;2023-07-20T11:20:59;0.30;;;0.30;;
6119;SDS011;3090;52.496;13.298;2023-07-20T11:23:25;0.20;;;0.20;;
6119;SDS011;3090;52.496;13.298;2023-07-20T11:25:52;0.30;;;0.20;;
6119;SDS011;3090;52.496;13.298;2023-07-20T11:28:18;0.20;;;0.20;;
6119;SDS011;3090;52.496;13.298;2023-07-20T11:30:45;0.10;;;0.10;;
6119;SDS011;3090;52.496;13.298;2023-07-20T11:33:19;0.10;;;0.10;;
6119;SDS011;3090;52.496;13.298;2023-07-20T11:35:46;0.28;;;0.28;;
6119;SDS011;3090;52.496;13.298;2023-07-20T11:38:12;0.20;;;0.20;;
6119;SDS011;3090;52.496;13.298;2023-07-20T11:40:42;0.10;;;0.10;;
6119;SDS011;3090;52.496;13.298;2023-07-20T11:43:08;0.10;;;0.10;;
6119;SDS011;3090;52.496;13.298;2023-07-20T11:45:35;0.20;;;0.20;;
6119;SDS011;3090;52.496;13.298;2023-07-20T11:48:03;0.40;;;0.40;;
6119;SDS011;3090;52.496;13.298;2023-07-20T11:50:31;0.10;;;0.10;;
6119;SDS011;3090;52.496;13.298;2023-07-20T11:52:57;0.20;;;0.20;;
6119;SDS011;3090;52.496;13.298;2023-07-20T11:55:24;0.20;;;0.20;;
6119;SDS011;3090;52.496;13.298;2023-07-20T11:58:03;0.10;;;0.10;;
6119;SDS011;3090;52.496;13.298;2023-07-20T12:00:29;0.30;;;0.30;;
6119;SDS011;3090;52.496;13.298;2023-07-20T12:02:56;0.50;;;0.50;;
6119;SDS011;3090;52.496;13.298;2023-07-20T12:05:22;0.20;;;0.20;;
6119;SDS011;3090;52.496;13.298;2023-07-20T12:07:52;0.13;;;0.13;;
6119;SDS011;3090;52.496;13.298;2023-07-20T12:10:23;0.13;;;0.13;;
6119;SDS011;3090;52.496;13.298;2023-07-20T12:12:50;0.28;;;0.28;;
6119;SDS011;3090;52.496;13.298;2023-07-20T12:15:17;0.30;;;0.30;;
6119;SDS011;3090;52.496;13.298;2023-07-20T12:17:44;0.13;;;0.13;;
6119;SDS011;3090;52.496;13.298;2023-07-20T12:20:12;0.32;;;0.32;;
6119;SDS011;3090;52.496;13.298;2023-07-20T12:22:39;0.10;;;0.10;;
6119;SDS011;3090;52.496;13.298;2023-07-20T12:25:07;0.10;;;0.10;;
6119;SDS011;3090;52.496;13.298;2023-07-20T12:27:35;0.17;;;0.17;;
6119;SDS011;3090;52.496;13.298;2023-07-20T12:30:02;0.10;;;0.10;;
6119;SDS011;3090;52.496;13.298;2023-07-20T12:32:35;0.17;;;0.17;;
6119;SDS011;3090;52.496;13.298;2023-07-20T12:35:04;0.25;;;0.25;;
6119;SDS011;3090;52.496;13.298;2023-07-20T12:37:31;0.15;;;0.15;;
6119;SDS011;3090;52.496;13.298;2023-07-20T12:39:57;0.10;;;0.10;;
6119;SDS011;3090;52.496;13.298;2023-07-20T12:42:25;0.20;;;0.20;;
6119;SDS011;3090;52.496;13.298;2023-07-20T12:44:51;0.10;;;0.10;;
6119;SDS011;3090;52.496;13.298;2023-07-20T12:47:18;0.30;;;0.30;;
6119;SDS011;3090;52.496;13.298;2023-07-20T12:49:44;0.10;;;0.10;;
6119;SDS011;3090;52.496;13.298;2023-07-20T12:52:11;0.10;;;0.10;;
6119;SDS011;3090;52.496;13.298;2023-07-20T12:54:38;0.10;;;0.10;;
6119;SDS011;3090;52.496;13.298;2023-07-20T12:57:04;0.17;;;0.17;;
6119;SDS011;3090;52.496;13.298;2023-07-20T12:59:32;0.10;;;0.10;;
6119;SDS011;3090;52.496;13.298;2023-07-20T13:01:59;0.10;;;0.10;;
6119;SDS011;3090;52.496;13.298;2023-07-20T13:04:26;0.10;;;0.10;;
6119;SDS011;3090;52.496;13.298;2023-07-20T13:06:52;0.17;;;0.17;;
6119;SDS011;3090;52.496;13.298;2023-07-20T13:09:19;0.10;;;0.10;;
6119;SDS011;3090;52.496;13.298;2023-07-20T13:11:46;0.15;;;0.15;;
6119;SDS011;3090;52.496;13.298;2023-07-20T13:14:12;0.10;;;0.10;;
6119;SDS011;3090;52.496;13.298;2023-07-20T13:16:39;0.30;;;0.30;;
6119;SDS011;3090;52.496;13.298;2023-07-20T13:19:06;0.10;;;0.10;;
6119;SDS011;3090;52.496;13.298;2023-07-20T13:21:32;0.20;;;0.20;;
6119;SDS011;3090;52.496;13.298;2023-07-20T13:23:59;0.10;;;0.10;;
6119;SDS011;3090;52.496;13.298;2023-07-20T13:26:25;0.32;;;0.17;;
6119;SDS011;3090;52.496;13.298;2023-07-20T13:28:51;0.20;;;0.20;;
6119;SDS011;3090;52.496;13.298;2023-07-20T13:31:18;0.10;;;0.10;;
6119;SDS011;3090;52.496;13.298;2023-07-20T13:33:47;0.00;;;0.00;;
6119;SDS011;3090;52.496;13.298;2023-07-20T13:36:13;0.10;;;0.10;;
6119;SDS011;3090;52.496;13.298;2023-07-20T13:38:39;0.10;;;0.10;;
6119;SDS011;3090;52.496;13.298;2023-07-20T13:41:06;0.10;;;0.10;;
6119;SDS011;3090;52.496;13.298;2023-07-20T13:43:32;0.00;;;0.00;;
6119;SDS011;3090;52.496;13.298;2023-07-20T13:46:01;0.20;;;0.20;;
6119;SDS011;3090;52.496;13.298;2023-07-20T13:48:27;0.10;;;0.10;;
6119;SDS011;3090;52.496;13.298;2023-07-20T13:50:55;0.20;;;0.20;;
6119;SDS011;3090;52.496;13.298;2023-07-20T13:53:22;0.20;;;0.20;;
6119;SDS011;3090;52.496;13.298;2023-07-20T13:55:48;0.13;;;0.13;;
6119;SDS011;3090;52.496;13.298;2023-07-20T13:58:15;0.10;;;0.10;;
6119;SDS011;3090;52.496;13.298;2023-07-20T14:00:41;0.20;;;0.20;;
6119;SDS011;3090;52.496;13.298;2023-07-20T14:03:07;0.20;;;0.20;;
6119;SDS011;3090;52.496;13.298;2023-07-20T14:05:38;0.20;;;0.20;;
6119;SDS011;3090;52.496;13.298;2023-07-20T14:08:07;0.10;;;0.10;;
6119;SDS011;3090;52.496;13.298;2023-07-20T14:10:33;0.28;;;0.28;;
6119;SDS011;3090;52.496;13.298;2023-07-20T14:12:59;0.30;;;0.30;;
6119;SDS011;3090;52.496;13.298;2023-07-20T14:15:26;0.10;;;0.10;;
6119;SDS011;3090;52.496;13.298;2023-07-20T14:17:52;0.10;;;0.10;;
6119;SDS011;3090;52.496;13.298;2023-07-20T14:20:19;0.30;;;0.30;;
6119;SDS011;3090;52.496;13.298;2023-07-20T14:22:45;0.10;;;0.10;;
6119;SDS011;3090;52.496;13.298;2023-07-20T14:25:14;0.10;;;0.10;;
6119;SDS011;3090;52.496;13.298;2023-07-20T14:27:40;0.10;;;0.10;;
6119;SDS011;3090;52.496;13.298;2023-07-20T14:30:07;0.10;;;0.10;;
6119;SDS011;3090;52.496;13.298;2023-07-20T14:32:33;0.10;;;0.10;;
6119;SDS011;3090;52.496;13.298;2023-07-20T14:35:00;0.10;;;0.10;;
6119;SDS011;3090;52.496;13.298;2023-07-20T14:37:26;0.20;;;0.20;;
6119;SDS011;3090;52.496;13.298;2023-07-20T14:39:52;0.10;;;0.10;;
6119;SDS011;3090;52.496;13.298;2023-07-20T14:42:20;0.20;;;0.20;;
6119;SDS011;3090;52.496;13.298;2023-07-20T14:44:46;0.22;;;0.22;;
6119;SDS011;3090;52.496;13.298;2023-07-20T14:47:15;0.10;;;0.10;;
6119;SDS011;3090;52.496;13.298;2023-07-20T14:49:42;0.10;;;0.10;;
6119;SDS011;3090;52.496;13.298;2023-07-20T14:52:09;0.10;;;0.10;;
6119;SDS011;3090;52.496;13.298;2023-07-20T14:54:35;0.13;;;0.13;;
6119;SDS011;3090;52.496;13.298;2023-07-20T14:57:02;0.10;;;0.10;;
6119;SDS011;3090;52.496;13.298;2023-07-20T14:59:30;0.10;;;0.10;;
6119;SDS011;3090;52.496;13.298;2023-07-20T15:01:56;0.10;;;0.10;;
6119;SDS011;3090;52.496;13.298;2023-07-20T15:04:22;0.10;;;0.10;;
6119;SDS011;3090;52.496;13.298;2023-07-20T15:06:49;0.10;;;0.10;;